Accueil
METAR-TAF:

METAR-TAF

Aéroports :

Suffolk Executive Airport

Suffolk, Virginie, États-Unis

latitude: 36-40-56N, longitude: 076-36-07W, altitude: 22 m

Observation

Le bulletin a été fait il y a 17 minutes, à 19:55 UTC
Vent 4 kt de ouest/sud-ouest
Température 31°C
Humidité 59%
Pression 1009 hPa
Visibilité: 16.1 km
Nuages fragmentés à une hauteur de 4000 ft
Nuages fragmentés à une hauteur de 4600 ft
Nuages fragmentés à une hauteur de 6000 ft

METAR: KSFQ 101955Z AUTO 24004KT 10SM BKN040 BKN046 BKN060 31/22 A2980 RMK AO2 T03140219

Heure: 16:12 (20:12 UTC)


TAF: absent

Observations et prévisions météorologiques de plus de 4000 aéroports (messages METAR et TAF).

Les stations disponibles sont représentées par des disques jaunes et rouges sur la carte.

Passer la souris dessus pour voir le nom de la station.

Cliquer dessus pour voir les observations et prévisions météorologiques.

Pour changer de carte: cliquez sur les boutons verts avec une croix noire pour zoomer, sur le bouton vert avec un tiret pour effectuer un zoom arrière, ou sur les flèches vertes pour les cartes adjacentes.


METAR-TAF: